Latest Weather Observations for Dwellingup

IDW60801

Issued at 5:03 am WST Thursday 30 March 2017 (issued every 30 minutes, with the page automatically refreshed every 10 minutes)

About weather observations | Map of weather stations | Latest weather observations for WA | Other Formats
Station Details ID: 009538 Name: DWELLINGUP Lat: -32.71 Lon: 116.06 Height: 267.0 m
Data from the previous 72 hours. | See also: Recent months at Dwellingup
Date/Time
WST
Temp
°C
App
Temp
°C
Dew
Point
°C
Rel
Hum
%
Delta-T
°C
Wind Press
QNH
hPa
Press
MSL
hPa
Rain since
9am
mm
Dir  Spd
km/h
Gust
km/h
Spd
kts
Gust
kts
30/05:00am 8.7 3.8 4.3 74 2.0 ESE 19 26 10 14 1024.9 1024.0 0.0
30/04:30am 9.2 4.4 4.4 72 2.1 ESE 19 28 10 15 1024.9 1024.0 0.0
30/04:00am 9.4 4.6 4.4 71 2.2 ESE 19 28 10 15 1024.8 1023.9 0.0
30/03:30am 9.8 5.3 4.2 68 2.5 ESE 17 26 9 14 1024.7 1023.8 0.0
30/03:00am 9.9 5.0 4.1 67 2.6 ESE 19 28 10 15 1024.7 1023.8 0.0
30/02:30am 10.4 5.5 3.9 64 2.9 ESE 19 28 10 15 1024.9 1024.0 0.0
30/02:00am 10.9 6.0 3.9 62 3.1 ESE 19 28 10 15 1024.9 1024.0 0.0
30/01:30am 11.0 5.8 3.8 61 3.2 ESE 20 33 11 18 1025.2 1024.3 0.0
30/01:00am 11.6 6.6 3.6 58 3.6 ESE 19 33 10 18 1025.1 1024.2 0.0
30/12:30am 12.1 6.9 3.6 56 3.8 ESE 20 32 11 17 1025.0 1024.1 0.0
30/12:00am 12.7 7.5 3.4 53 4.2 ESE 20 33 11 18 1024.9 1024.0 0.0
 
Date/Time
WST
Temp
°C
App
Temp
°C
Dew
Point
°C
Rel
Hum
%
Delta-T
°C
Wind Press
QNH
hPa
Press
MSL
hPa
Rain since
9am
mm
Dir  Spd
km/h
Gust
km/h
Spd
kts
Gust
kts
29/11:30pm 13.2 7.6 3.3 51 4.5 ESE 22 37 12 20 1025.0 1024.1 0.0
29/11:00pm 13.5 7.8 3.0 49 4.7 ESE 22 37 12 20 1024.9 1024.0 0.0
29/10:30pm 14.1 8.7 2.7 46 5.1 ESE 20 37 11 20 1024.8 1023.9 0.0
29/10:00pm 14.2 8.0 2.1 44 5.4 ESE 24 39 13 21 1024.7 1023.8 0.0
29/09:30pm 14.1 7.9 2.4 45 5.2 ESE 24 37 13 20 1024.8 1023.9 0.0
29/09:00pm 14.2 8.9 2.8 46 5.1 ESE 20 32 11 17 1024.8 1023.9 0.0
29/08:30pm 14.2 9.1 3.1 47 5.1 ESE 19 30 10 16 1024.7 1023.8 0.0
29/08:00pm 14.4 9.4 3.5 48 5.0 ESE 19 30 10 16 1024.4 1023.5 0.0
29/07:30pm 15.0 10.4 3.8 47 5.2 ESE 17 28 9 15 1024.1 1023.2 0.0
29/07:00pm 15.7 11.1 3.8 45 5.5 ESE 17 26 9 14 1023.9 1023.0 0.0
29/06:30pm 16.9 12.3 3.6 41 6.3 ESE 17 24 9 13 1023.8 1022.9 0.0
29/06:00pm 18.3 13.6 3.0 36 7.1 ESE 17 30 9 16 1023.8 1022.9 0.0
29/05:30pm 19.6 14.8 2.5 32 8.0 ESE 17 26 9 14 1023.4 1022.6 0.0
29/05:00pm 20.2 14.8 2.5 31 8.3 ESE 20 33 11 18 1023.3 1022.5 0.0
29/04:30pm 20.8 16.4 2.6 30 8.6 ESE 15 30 8 16 1023.2 1022.4 0.0
29/04:00pm 20.7 15.2 1.6 28 8.8 ESE 20 35 11 19 1023.3 1022.5 0.0
29/03:30pm 21.4 16.3 3.1 30 8.8 ESE 19 32 10 17 1023.4 1022.6 0.0
29/03:00pm 21.2 16.5 3.0 30 8.7 ESE 17 33 9 18 1023.6 1022.7 0.0
29/02:30pm 20.7 16.1 3.9 33 8.2 ESE 17 37 9 20 1023.7 1022.8 0.0
29/02:00pm 20.3 15.1 3.5 33 8.0 ESE 20 35 11 19 1023.9 1023.0 0.0
29/01:30pm 20.5 15.5 4.5 35 7.9 ESE 20 35 11 19 1024.4 1023.5 0.0
29/01:00pm 19.7 14.2 4.2 36 7.5 ESE 22 44 12 24 1024.7 1023.8 0.0
29/12:30pm 19.1 12.9 4.1 37 7.2 ESE 26 39 14 21 1024.9 1024.0 0.0
29/12:00pm 18.2 13.0 3.7 38 6.9 E 20 33 11 18 1025.2 1024.3 0.0
29/11:35am 18.4 11.7 3.8 38 7.0 ESE 28 46 15 25 1025.4 1024.5 0.0
29/11:30am 18.5 12.7 4.3 39 6.9 ESE 24 46 13 25 1025.5 1024.6 0.0
29/11:00am 17.1 11.9 3.4 40 6.4 E 20 37 11 20 1025.5 1024.6 0.0
29/10:30am 15.8 9.8 3.6 44 5.7 E 24 41 13 22 1025.8 1024.9 0.0
29/10:00am 15.5 10.3 3.6 45 5.5 ESE 20 43 11 23 1026.2 1025.4 0.0
29/09:30am 14.2 8.2 3.4 48 4.9 E 24 48 13 26 1026.0 1025.1 0.0
29/09:15am 14.2 7.7 4.8 53 4.4 ESE 28 46 15 25 1025.9 1025.0 0.0
29/09:00am 13.7 7.9 4.6 54 4.2 ESE 24 39 13 21 1025.9 1025.0 0.0
29/08:36am 12.6 6.0 4.1 56 3.9 ESE 28 46 15 25 1025.9 1025.0 0.0
29/08:30am 12.5 6.6 4.0 56 3.9 ESE 24 46 13 25 1025.7 1024.8 0.0
29/08:18am 12.0 5.4 4.0 58 3.6 ESE 28 46 15 25 1025.5 1024.6 0.0
29/08:00am 11.2 5.9 5.1 66 2.8 ESE 22 37 12 20 1025.6 1024.7 0.0
29/07:30am 10.1 4.9 5.3 72 2.2 ESE 22 35 12 19 1025.2 1024.3 0.0
29/07:00am 9.2 4.3 5.2 76 1.8 ESE 20 32 11 17 1025.1 1024.2 0.0
29/06:30am 9.4 4.1 5.2 75 1.9 ESE 22 33 12 18 1024.7 1023.8 0.0
29/06:00am 9.5 4.7 5.7 77 1.8 ESE 20 37 11 20 1024.7 1023.8 0.0
29/05:30am 9.8 4.7 6.0 77 1.8 ESE 22 33 12 18 1024.4 1023.5 0.0
29/05:00am 10.1 4.7 6.4 78 1.7 ESE 24 35 13 19 1024.2 1023.3 0.0
29/04:30am 10.5 5.9 6.6 77 1.9 ESE 20 33 11 18 1023.8 1022.9 0.0
29/04:00am 10.8 6.3 6.9 77 1.9 SE 20 33 11 18 1023.3 1022.5 0.0
29/03:30am 11.1 6.8 7.2 77 1.9 ESE 19 35 10 19 1023.2 1022.4 0.0
29/03:00am 11.5 6.8 7.6 77 1.9 SE 22 41 12 22 1023.0 1022.2 0.0
29/02:30am 11.8 7.7 7.7 76 2.0 SE 19 35 10 19 1022.9 1022.1 0.0
29/02:00am 12.2 7.9 7.9 75 2.1 SE 20 33 11 18 1022.7 1021.8 0.0
29/01:30am 12.5 8.8 8.0 74 2.2 SSE 17 30 9 16 1022.4 1021.5 0.0
29/01:00am 13.0 8.7 7.7 70 2.6 SSE 20 35 11 19 1022.3 1021.4 0.0
29/12:30am 13.9 10.7 8.3 69 2.8 SE 15 20 8 11 1022.1 1021.2 0.0
29/12:00am 14.3 11.1 9.9 75 2.3 SSE 17 32 9 17 1021.9 1021.0 0.0
 
Date/Time
WST
Temp
°C
App
Temp
°C
Dew
Point
°C
Rel
Hum
%
Delta-T
°C
Wind Press
QNH
hPa
Press
MSL
hPa
Rain since
9am
mm
Dir  Spd
km/h
Gust
km/h
Spd
kts
Gust
kts
28/11:30pm 14.1 10.9 10.1 77 2.1 SSE 17 32 9 17 1021.7 1020.8 0.0
28/11:00pm 14.0 10.6 10.6 80 1.8 SSE 19 32 10 17 1021.6 1020.7 0.0
28/10:30pm 14.1 10.7 10.7 80 1.8 SSE 19 33 10 18 1021.4 1020.5 0.0
28/10:00pm 14.1 10.9 10.1 77 2.1 S 17 28 9 15 1021.1 1020.2 0.0
28/09:30pm 14.3 11.5 9.9 75 2.3 S 15 24 8 13 1021.0 1020.1 0.0
28/09:00pm 14.3 11.5 10.1 76 2.2 SSW 15 24 8 13 1021.0 1020.1 0.0
28/08:30pm 14.8 11.4 10.4 75 2.3 SSW 19 30 10 16 1020.7 1019.8 0.0
28/08:00pm 14.6 11.6 10.8 78 2.0 SW 17 28 9 15 1020.6 1019.7 0.0
28/07:30pm 15.5 12.3 11.1 75 2.4 SW 19 28 10 15 1020.0 1019.1 0.0
28/07:00pm 16.2 13.4 11.2 72 2.7 SW 17 26 9 14 1019.4 1018.5 0.0
28/06:30pm 16.6 13.2 11.1 70 3.0 SW 20 32 11 17 1019.0 1018.1 0.0
28/06:00pm 17.2 13.9 11.7 70 3.0 SW 20 33 11 18 1019.1 1018.2 0.0
28/05:30pm 18.0 15.7 10.6 62 4.0 SW 13 24 7 13 1018.9 1018.0 0.0
28/05:00pm 18.6 16.4 10.7 60 4.3 SW 13 26 7 14 1018.6 1017.7 0.0
28/04:30pm 19.4 17.2 10.9 58 4.7 WSW 13 28 7 15 1018.5 1017.6 0.0
28/04:00pm 19.5 16.5 10.5 56 4.9 WSW 17 28 9 15 1018.3 1017.4 0.0
28/03:30pm 20.5 17.3 11.2 55 5.2 SW 19 30 10 16 1018.2 1017.3 0.0
28/03:00pm 20.5 18.4 11.2 55 5.2 WSW 13 24 7 13 1018.2 1017.3 0.0
28/02:30pm 20.2 17.2 11.9 59 4.7 W 19 26 10 14 1018.1 1017.2 0.0
28/02:00pm 20.5 18.3 12.0 58 4.8 WSW 15 28 8 15 1018.2 1017.3 0.0
28/01:30pm 19.0 17.6 12.3 65 3.8 SW 11 19 6 10 1018.4 1017.5 0.0
28/01:00pm 19.0 16.5 12.3 65 3.8 SW 17 28 9 15 1018.7 1017.8 0.0
28/12:30pm 20.1 18.3 12.1 60 4.5 SW 13 20 7 11 1018.9 1018.0 0.0
28/12:00pm 19.4 17.7 12.4 64 4.0 WSW 13 24 7 13 1019.1 1018.2 0.0
28/11:30am 18.5 17.0 12.0 66 3.6 SW 11 19 6 10 1019.5 1018.7 0.0
28/11:00am 16.6 14.5 12.4 76 2.3 SW 15 20 8 11 1020.0 1019.1 0.0
28/10:30am 16.8 15.4 12.3 75 2.5 WSW 11 19 6 10 1020.0 1019.1 0.0
28/10:00am 16.3 15.0 12.5 78 2.1 WSW 11 24 6 13 1019.9 1019.0 0.0
28/09:30am 14.9 14.7 11.9 82 1.6 W 4 13 2 7 1020.0 1019.1 0.0
28/09:00am 14.3 14.7 11.3 82 1.6 CALM 0 0 0 0 1019.8 1018.9 0.0
28/08:30am 11.9 12.0 10.1 89 0.9 CALM 0 2 0 1 1019.8 1018.9 0.0
28/08:00am 10.0 9.7 8.8 92 0.6 CALM 0 0 0 0 1019.5 1018.7 0.0
28/07:30am 8.5 7.1 7.4 93 0.5 ESE 4 7 2 4 1019.5 1018.7 0.0
28/07:00am 7.2 4.6 6.0 92 0.5 SE 9 11 5 6 1019.4 1018.5 0.0
28/06:30am 6.9 4.2 5.7 92 0.5 ESE 9 11 5 6 1019.4 1018.5 0.0
28/06:00am 7.1 4.0 5.7 91 0.6 SE 11 11 6 6 1019.3 1018.4 0.0
28/05:30am 7.3 3.9 5.9 91 0.6 SSE 13 13 7 7 1019.4 1018.5 0.0
28/05:00am 7.5 4.5 6.1 91 0.6 SSE 11 13 6 7 1019.3 1018.4 0.0
28/04:30am 7.7 4.8 6.3 91 0.6 SSE 11 13 6 7 1019.5 1018.7 0.0
28/04:00am 7.8 4.9 6.4 91 0.6 S 11 11 6 6 1019.7 1018.8 0.0
28/03:30am 8.0 5.1 6.6 91 0.7 SSE 11 13 6 7 1019.5 1018.7 0.0
28/03:00am 8.5 5.7 7.1 91 0.7 SSE 11 13 6 7 1019.5 1018.7 0.0
28/02:30am 8.5 6.1 7.0 90 0.7 SSE 9 11 5 6 1019.8 1018.9 0.0
28/02:00am 8.9 6.6 7.4 90 0.7 SSE 9 13 5 7 1019.9 1019.0 0.0
28/01:30am 9.2 6.6 7.6 90 0.8 SSE 11 13 6 7 1019.9 1019.0 0.0
28/01:00am 9.3 6.3 7.7 90 0.8 S 13 17 7 9 1020.0 1019.1 0.0
28/12:30am 9.3 6.3 7.6 89 0.8 S 13 17 7 9 1020.1 1019.2 0.0
28/12:00am 9.5 6.5 7.6 88 0.9 S 13 15 7 8 1020.3 1019.4 0.0
 
Date/Time
WST
Temp
°C
App
Temp
°C
Dew
Point
°C
Rel
Hum
%
Delta-T
°C
Wind Press
QNH
hPa
Press
MSL
hPa
Rain since
9am
mm
Dir  Spd
km/h
Gust
km/h
Spd
kts
Gust
kts
27/11:30pm 9.7 7.1 7.8 88 0.9 S 11 13 6 7 1020.2 1019.3 0.0
27/11:00pm 10.1 7.2 8.0 87 1.0 S 13 15 7 8 1020.4 1019.5 0.0
27/10:30pm 10.5 8.0 8.1 85 1.2 S 11 13 6 7 1020.4 1019.5 0.0
27/10:00pm 11.0 8.9 8.4 84 1.3 S 9 13 5 7 1020.5 1019.6 0.0
27/09:30pm 11.7 8.9 8.6 81 1.6 S 13 19 7 10 1020.4 1019.5 0.0
27/09:00pm 12.8 9.7 8.9 77 2.0 S 15 20 8 11 1020.2 1019.3 0.0
27/08:30pm 13.9 11.2 8.9 72 2.6 S 13 19 7 10 1020.3 1019.4 0.0
27/08:00pm 14.0 10.8 8.6 70 2.7 S 15 19 8 10 1020.1 1019.2 0.0
27/07:30pm 14.4 11.3 8.8 69 2.9 S 15 20 8 11 1020.1 1019.2 0.0
27/07:00pm 14.6 11.7 8.3 66 3.2 SSW 13 17 7 9 1020.1 1019.2 0.0
27/06:30pm 15.5 12.7 8.7 64 3.5 SSW 13 20 7 11 1020.2 1019.3 0.0
27/06:00pm 16.2 13.4 8.7 61 3.9 SW 13 20 7 11 1020.2 1019.3 0.0
27/05:30pm 17.1 13.9 8.5 57 4.5 SW 15 24 8 13 1020.2 1019.3 0.0
27/05:00pm 17.9 14.8 8.7 55 4.8 SW 15 24 8 13 1020.4 1019.5 0.0
27/04:30pm 18.4 15.2 8.4 52 5.2 SSW 15 24 8 13 1020.3 1019.4 0.0
27/04:00pm 19.6 16.3 8.0 47 6.0 WSW 15 26 8 14 1020.5 1019.6 0.0
27/03:30pm 20.4 17.6 7.1 42 6.9 SW 11 20 6 11 1020.8 1019.9 0.0
27/03:00pm 19.9 17.2 7.3 44 6.5 SSW 11 19 6 10 1020.9 1020.0 0.0
27/02:30pm 19.4 16.6 6.8 44 6.4 WSW 11 19 6 10 1020.9 1020.0 0.0
27/02:00pm 19.5 16.2 6.3 42 6.6 W 13 30 7 16 1021.3 1020.4 0.0
27/01:30pm 19.4 16.1 6.5 43 6.5 WNW 13 20 7 11 1021.7 1020.8 0.0
27/01:00pm 19.6 16.8 7.0 44 6.4 WNW 11 15 6 8 1022.1 1021.2 0.0
27/12:30pm 18.6 15.4 6.8 46 6.0 SW 13 19 7 10 1022.5 1021.6 0.0
27/12:00pm 18.2 16.3 6.7 47 5.8 NW 6 17 3 9 1022.8 1022.0 0.0
27/11:30am 17.8 15.9 6.7 48 5.6 SW 6 11 3 6 1023.2 1022.4 0.0
27/11:00am 17.0 14.9 6.5 50 5.2 WNW 7 13 4 7 1023.6 1022.7 0.0
27/10:30am 15.9 13.9 6.1 52 4.8 WSW 6 13 3 7 1023.9 1023.0 0.0
27/10:00am 16.3 14.1 6.4 52 4.9 SE 7 11 4 6 1023.9 1023.0 0.0
27/09:30am 15.8 13.9 6.8 55 4.5 E 6 11 3 6 1024.1 1023.2 0.0
27/09:00am 14.2 12.5 7.5 64 3.3 NE 6 13 3 7 1024.0 1023.1 0.2
27/08:30am 11.7 10.6 8.4 80 1.7 NE 4 9 2 5 1023.8 1022.9 0.2
27/08:00am 8.5 6.7 7.3 92 0.6 NE 6 9 3 5 1023.8 1022.9 0.2
27/07:30am 6.3 3.9 5.1 92 0.5 NE 7 9 4 5 1023.7 1022.8 0.2
27/07:00am 5.6 3.0 4.4 92 0.5 NE 7 9 4 5 1023.3 1022.5 0.2
27/06:30am 5.5 2.5 4.2 91 0.6 NE 9 11 5 6 1023.0 1022.2 0.2
27/06:00am 5.6 3.6 4.2 91 0.6 NE 4 9 2 5 1022.8 1022.0 0.2
27/05:30am 6.0 3.7 4.6 91 0.6 NE 6 9 3 5 1022.4 1021.5 0.2

Other Formats:

Comma delimited format used in spreadsheet applications
http://www.bom.gov.au/fwo/IDW60801/IDW60801.94620.axf

JavaScript Object Notation format (JSON) in row-major order
http://www.bom.gov.au/fwo/IDW60801/IDW60801.94620.json